GSS weather

Sabi Sabi Airport
Belfast, Mpumalanga, South Africa

Public forecast

Using degrees Celsius for public forecast. Weather courtesy of forecast.io.

Closest aviation weather report (METAR) to Sabi Sabi Airport

Closest report is Kruger Mpumalanga International Airport, 32.1 nm (59.5 km) SW. Retrieved 2019/12/13 15:00 UTC (57 minutes ago):

FAKN 131500Z 10006KT 9999 SCT020 BKN070 21/15 Q1020 NOSIG

Closest aviation forecast (TAF) to Sabi Sabi Airport

Forecast is more than 12 hours old.

Closest forecast is Kruger Mpumalanga International Airport, 32.1 nm (59.5 km) SW. Retrieved 2017/06/05 04:55 UTC (3 years ago):

TAF FAKN 050300Z 0504/0515 25006KT CAVOK BECMG 0511/0513 13005KT SCT030 BECMG 0513/0515 07005KT TX22/0513ZTN08/0504Z